Time;durP1;ratioP1;P1;durP2;ratioP2;P2;SDS_P1;SDS_P2;PMS_P1;PMS_P2;Temp;Humidity;BMP_temperature;BMP_pressure;BME280_temperature;BME280_humidity;BME280_pressure;Samples;Min_cycle;Max_cycle;Signal;HPM_P1;HPM_P2
2021/11/26 00:01:23;0.00;0.00;0.62;0.00;0.00;0.62;2.07;1.60;;;22.50;28.30;;;;;;2246239;61;20462;-64
2021/11/26 00:04:09;0.00;0.00;0.62;0.00;0.00;0.62;4.03;2.30;;;22.50;28.30;;;;;;2245860;61;20753;-63
2021/11/26 00:06:54;0.00;0.00;0.62;0.00;0.00;0.62;3.83;1.90;;;22.50;28.30;;;;;;2245193;61;20394;-64
2021/11/26 00:09:39;0.00;0.00;0.62;0.00;0.00;0.62;2.63;1.80;;;22.50;28.30;;;;;;2246083;61;20361;-62
2021/11/26 00:12:24;0.00;0.00;0.62;0.00;0.00;0.62;2.43;1.97;;;22.50;28.40;;;;;;2245968;61;20366;-63
2021/11/26 00:15:23;0.00;0.00;0.62;0.00;0.00;0.62;2.00;1.50;;;22.50;28.40;;;;;;2244911;61;20370;-64
2021/11/26 00:18:19;0.00;0.00;0.62;0.00;0.00;0.62;2.30;1.60;;;22.50;28.40;;;;;;2245892;61;20620;-64
2021/11/26 00:21:03;0.00;0.00;0.62;0.00;0.00;0.62;2.33;1.80;;;22.50;28.40;;;;;;2472604;54;20430;-62
2021/11/26 00:23:48;0.00;0.00;0.62;0.00;0.00;0.62;2.80;1.43;;;22.50;28.40;;;;;;2242107;62;20390;-64
2021/11/26 00:26:34;0.00;0.00;0.62;0.00;0.00;0.62;2.67;1.83;;;22.50;28.40;;;;;;2241896;62;20369;-63
2021/11/26 00:29:19;0.00;0.00;0.62;0.00;0.00;0.62;1.83;1.30;;;22.50;28.40;;;;;;2240755;62;20366;-65
2021/11/26 00:32:05;0.00;0.00;0.62;0.00;0.00;0.62;1.80;1.30;;;22.50;28.30;;;;;;2242092;62;20598;-63
2021/11/26 00:34:51;0.00;0.00;0.62;0.00;0.00;0.62;2.13;1.93;;;22.50;28.30;;;;;;2242034;62;20371;-63
2021/11/26 00:37:36;0.00;0.00;0.62;0.00;0.00;0.62;2.43;1.60;;;22.50;28.40;;;;;;2241054;62;20367;-64
2021/11/26 00:40:21;0.00;0.00;0.62;0.00;0.00;0.62;2.27;1.80;;;22.50;28.30;;;;;;2241953;62;20488;-64
2021/11/26 00:43:06;0.00;0.00;0.62;0.00;0.00;0.62;3.13;1.77;;;22.50;28.30;;;;;;2241125;62;20419;-64
2021/11/26 00:45:51;0.00;0.00;0.62;0.00;0.00;0.62;2.10;1.53;;;22.50;28.30;;;;;;2242063;62;20378;-64
2021/11/26 00:48:36;0.00;0.00;0.62;0.00;0.00;0.62;2.03;1.40;;;22.50;28.30;;;;;;2241764;62;20366;-65
2021/11/26 00:51:22;0.00;0.00;0.62;0.00;0.00;0.62;2.23;1.47;;;22.50;28.30;;;;;;2241089;62;20386;-64
2021/11/26 00:54:07;0.00;0.00;0.62;0.00;0.00;0.62;3.87;2.00;;;22.50;28.40;;;;;;2241834;62;20366;-63
2021/11/26 00:56:52;0.00;0.00;0.62;0.00;0.00;0.62;2.20;1.40;;;22.50;28.30;;;;;;2241885;62;20398;-64
2021/11/26 00:59:37;0.00;0.00;0.62;0.00;0.00;0.62;2.50;1.60;;;22.50;28.30;;;;;;2241098;62;20627;-63
2021/11/26 01:02:22;0.00;0.00;0.62;0.00;0.00;0.62;2.43;1.50;;;22.50;28.30;;;;;;2242056;62;20631;-64
2021/11/26 01:05:09;0.00;0.00;0.62;0.00;0.00;0.62;2.17;1.37;;;22.50;28.30;;;;;;2240836;62;20355;-67
2021/11/26 01:07:55;0.00;0.00;0.62;0.00;0.00;0.62;2.07;1.50;;;22.50;28.30;;;;;;2242045;62;20452;-65
2021/11/26 01:10:41;0.00;0.00;0.62;0.00;0.00;0.62;2.10;1.40;;;22.50;28.40;;;;;;2241798;62;20503;-64
2021/11/26 01:13:26;0.00;0.00;0.62;0.00;0.00;0.62;2.00;1.37;;;22.50;28.30;;;;;;2240931;62;20367;-62
2021/11/26 01:16:11;0.00;0.00;0.62;0.00;0.00;0.62;1.73;1.23;;;22.50;28.40;;;;;;2242032;62;20599;-62
2021/11/26 01:18:56;0.00;0.00;0.62;0.00;0.00;0.62;3.13;2.10;;;22.50;28.30;;;;;;2243261;61;20437;-64
2021/11/26 01:21:40;0.00;0.00;0.62;0.00;0.00;0.62;4.43;3.03;;;22.50;28.30;;;;;;2244399;61;20385;-63
2021/11/26 01:24:27;0.00;0.00;0.62;0.00;0.00;0.62;3.03;2.10;;;22.50;28.30;;;;;;2245494;61;20749;-64
2021/11/26 01:27:12;0.00;0.00;0.62;0.00;0.00;0.62;3.13;2.67;;;22.50;28.30;;;;;;2244640;61;20369;-64
2021/11/26 01:29:57;0.00;0.00;0.62;0.00;0.00;0.62;5.03;3.27;;;22.50;28.30;;;;;;2245585;61;20389;-64
2021/11/26 01:32:42;0.00;0.00;0.62;0.00;0.00;0.62;4.17;3.37;;;22.40;28.30;;;;;;2245819;61;20390;-62
2021/11/26 01:35:29;0.00;0.00;0.62;0.00;0.00;0.62;5.30;3.53;;;22.40;28.20;;;;;;2245237;61;20389;-64
2021/11/26 01:38:14;0.00;0.00;0.62;0.00;0.00;0.62;6.57;4.20;;;22.40;28.10;;;;;;2245921;61;20466;-62
2021/11/26 01:41:00;0.00;0.00;0.62;0.00;0.00;0.62;6.30;3.80;;;22.40;27.90;;;;;;2245803;61;20741;-64
2021/11/26 01:43:45;0.00;0.00;0.62;0.00;0.00;0.62;7.10;4.40;;;22.30;27.80;;;;;;2245173;61;20381;-64
2021/11/26 01:46:29;0.00;0.00;0.62;0.00;0.00;0.62;7.33;4.53;;;22.40;27.70;;;;;;2246093;61;20750;-64
2021/11/26 01:49:15;0.00;0.00;0.62;0.00;0.00;0.62;5.70;4.37;;;22.30;27.50;;;;;;2245436;61;20397;-62
2021/11/26 01:52:00;0.00;0.00;0.62;0.00;0.00;0.62;5.07;4.53;;;22.30;27.40;;;;;;2246020;61;20378;-64
2021/11/26 01:54:45;0.00;0.00;0.62;0.00;0.00;0.62;5.43;3.67;;;22.30;27.40;;;;;;2245767;61;20579;-64
2021/11/26 01:57:31;0.00;0.00;0.62;0.00;0.00;0.62;7.37;4.17;;;22.20;27.30;;;;;;2245157;61;20360;-64
2021/11/26 02:00:23;0.00;0.00;0.62;0.00;0.00;0.62;7.07;5.33;;;22.20;27.40;;;;;;2245984;61;20475;-64
2021/11/26 02:03:09;0.00;0.00;0.62;0.00;0.00;0.62;7.10;4.57;;;22.10;27.30;;;;;;2245703;61;20614;-64
2021/11/26 02:05:54;0.00;0.00;0.62;0.00;0.00;0.62;7.10;4.50;;;22.10;27.20;;;;;;2245184;61;20366;-64
2021/11/26 02:08:38;0.00;0.00;0.62;0.00;0.00;0.62;5.27;4.60;;;22.10;27.20;;;;;;2248246;61;20401;-64
2021/11/26 02:11:23;0.00;0.00;0.62;0.00;0.00;0.62;8.50;5.30;;;22.00;27.20;;;;;;2245250;61;20457;-64
2021/11/26 02:14:11;0.00;0.00;0.62;0.00;0.00;0.62;7.30;4.50;;;22.00;27.20;;;;;;2246087;61;20350;-64
2021/11/26 02:16:56;0.00;0.00;0.62;0.00;0.00;0.62;6.50;5.03;;;22.00;27.20;;;;;;2245664;61;20373;-64
2021/11/26 02:19:40;0.00;0.00;0.62;0.00;0.00;0.62;6.40;4.93;;;21.90;27.10;;;;;;2244999;61;20361;-64
2021/11/26 02:22:27;0.00;0.00;0.62;0.00;0.00;0.62;6.70;4.47;;;21.90;27.10;;;;;;2245971;61;20384;-64
2021/11/26 02:25:12;0.00;0.00;0.62;0.00;0.00;0.62;6.60;4.33;;;21.90;27.10;;;;;;2245806;61;20439;-64
2021/11/26 02:27:59;0.00;0.00;0.62;0.00;0.00;0.62;6.53;4.40;;;21.80;27.00;;;;;;2245125;61;20409;-64
2021/11/26 02:30:45;0.00;0.00;0.62;0.00;0.00;0.62;6.60;4.30;;;21.80;27.00;;;;;;2245824;61;20389;-64
2021/11/26 02:33:30;0.00;0.00;0.62;0.00;0.00;0.62;7.23;4.90;;;21.80;27.00;;;;;;2245641;61;20365;-64
2021/11/26 02:36:14;0.00;0.00;0.62;0.00;0.00;0.62;7.37;4.70;;;21.70;26.90;;;;;;2245967;61;20358;-63
2021/11/26 02:39:01;0.00;0.00;0.62;0.00;0.00;0.62;6.47;4.70;;;21.70;26.90;;;;;;2245624;61;20397;-64
2021/11/26 02:41:47;0.00;0.00;0.62;0.00;0.00;0.62;8.43;4.17;;;21.70;27.00;;;;;;2245016;61;20532;-64
2021/11/26 02:44:31;0.00;0.00;0.62;0.00;0.00;0.62;5.87;4.07;;;21.70;27.00;;;;;;2245887;61;20425;-64
2021/11/26 02:47:16;0.00;0.00;0.62;0.00;0.00;0.62;5.43;4.00;;;21.70;27.00;;;;;;2245735;61;20405;-64
2021/11/26 02:50:06;0.00;0.00;0.62;0.00;0.00;0.62;6.10;4.33;;;21.60;27.00;;;;;;2244986;61;20422;-64
2021/11/26 02:52:53;0.00;0.00;0.62;0.00;0.00;0.62;6.33;4.20;;;21.60;27.00;;;;;;2245818;61;20369;-64
2021/11/26 02:55:40;0.00;0.00;0.62;0.00;0.00;0.62;5.17;4.40;;;21.60;27.00;;;;;;2245586;61;20361;-63
2021/11/26 02:58:25;0.00;0.00;0.62;0.00;0.00;0.62;7.30;4.50;;;21.60;27.10;;;;;;2245747;61;20393;-63
2021/11/26 03:01:09;0.00;0.00;0.62;0.00;0.00;0.62;7.30;4.97;;;21.50;27.00;;;;;;2245863;61;20640;-63
2021/11/26 03:03:54;0.00;0.00;0.62;0.00;0.00;0.62;7.93;5.17;;;21.50;27.00;;;;;;2244952;61;20418;-63
2021/11/26 03:06:38;0.00;0.00;0.62;0.00;0.00;0.62;4.63;4.13;;;21.50;26.90;;;;;;2248108;61;20410;-63
2021/11/26 03:09:23;0.00;0.00;0.62;0.00;0.00;0.62;7.60;4.37;;;21.50;26.90;;;;;;2245564;61;20385;-63
2021/11/26 03:12:10;0.00;0.00;0.62;0.00;0.00;0.62;7.00;4.40;;;21.40;26.90;;;;;;2244915;61;20381;-63
2021/11/26 03:14:55;0.00;0.00;0.62;0.00;0.00;0.62;5.00;3.90;;;21.40;26.90;;;;;;2245876;61;20357;-63
2021/11/26 03:17:40;0.00;0.00;0.62;0.00;0.00;0.62;5.40;3.90;;;21.40;27.40;;;;;;2245779;61;20359;-63
2021/11/26 03:20:27;0.00;0.00;0.62;0.00;0.00;0.62;6.47;4.13;;;21.40;26.90;;;;;;2245900;61;20389;-63
2021/11/26 03:23:14;0.00;0.00;0.62;0.00;0.00;0.62;8.70;4.27;;;21.40;27.00;;;;;;2246597;61;20412;-63
2021/11/26 03:25:59;0.00;0.00;0.62;0.00;0.00;0.62;6.43;4.10;;;21.40;27.00;;;;;;2245573;61;20364;-63
2021/11/26 03:28:45;0.00;0.00;0.62;0.00;0.00;0.62;8.10;4.63;;;21.40;27.00;;;;;;2246075;61;20713;-63
2021/11/26 03:31:29;0.00;0.00;0.62;0.00;0.00;0.62;7.20;4.40;;;21.30;26.90;;;;;;2246248;61;20579;-64
2021/11/26 03:34:14;0.00;0.00;0.62;0.00;0.00;0.62;7.00;4.17;;;21.30;27.40;;;;;;2245666;61;20358;-63
2021/11/26 03:36:59;0.00;0.00;0.62;0.00;0.00;0.62;6.80;4.93;;;21.30;26.90;;;;;;2246352;61;20425;-63
2021/11/26 03:39:44;0.00;0.00;0.62;0.00;0.00;0.62;7.33;4.07;;;21.30;26.90;;;;;;2246019;61;20405;-63
2021/11/26 03:42:29;0.00;0.00;0.62;0.00;0.00;0.62;6.43;4.43;;;21.30;26.90;;;;;;2245743;61;20372;-64
2021/11/26 03:45:16;0.00;0.00;0.62;0.00;0.00;0.62;7.73;5.20;;;21.30;26.90;;;;;;2246315;61;20470;-63
2021/11/26 03:48:01;0.00;0.00;0.62;0.00;0.00;0.62;6.63;4.40;;;21.20;26.80;;;;;;2245366;61;20369;-63
2021/11/26 03:50:46;0.00;0.00;0.62;0.00;0.00;0.62;7.77;5.30;;;21.20;27.20;;;;;;2246283;61;20378;-65
2021/11/26 03:53:31;0.00;0.00;0.62;0.00;0.00;0.62;6.37;4.93;;;21.20;26.60;;;;;;2246171;61;20362;-64
2021/11/26 03:56:16;0.00;0.00;0.62;0.00;0.00;0.62;7.93;5.63;;;21.10;26.50;;;;;;2245541;61;20745;-63
2021/11/26 03:59:00;0.00;0.00;0.62;0.00;0.00;0.62;8.37;4.40;;;21.10;26.50;;;;;;2246075;61;20456;-64
2021/11/26 04:01:46;0.00;0.00;0.62;0.00;0.00;0.62;6.60;4.80;;;21.10;26.60;;;;;;2246147;61;20417;-64
2021/11/26 04:04:31;0.00;0.00;0.62;0.00;0.00;0.62;5.80;4.50;;;21.10;26.70;;;;;;2245608;61;20749;-64
2021/11/26 04:07:16;0.00;0.00;0.62;0.00;0.00;0.62;7.40;5.30;;;21.00;26.60;;;;;;2245810;61;20571;-63
2021/11/26 04:10:01;0.00;0.00;0.62;0.00;0.00;0.62;6.50;4.80;;;21.00;26.60;;;;;;2245217;61;20434;-63
2021/11/26 04:12:48;0.00;0.00;0.62;0.00;0.00;0.62;5.80;4.23;;;21.00;26.70;;;;;;2246321;61;20405;-64
2021/11/26 04:15:37;0.00;0.00;0.62;0.00;0.00;0.62;7.13;4.67;;;21.00;26.70;;;;;;2246138;61;20358;-64
2021/11/26 04:18:23;0.00;0.00;0.62;0.00;0.00;0.62;6.67;4.57;;;21.00;27.20;;;;;;2245329;61;20353;-64
2021/11/26 04:21:09;0.00;0.00;0.62;0.00;0.00;0.62;6.07;4.60;;;21.00;26.70;;;;;;2246218;61;20749;-64
2021/11/26 04:23:53;0.00;0.00;0.62;0.00;0.00;0.62;7.50;4.63;;;20.90;26.60;;;;;;2246134;61;20701;-64
2021/11/26 04:26:38;0.00;0.00;0.62;0.00;0.00;0.62;9.60;5.97;;;20.90;27.20;;;;;;2245531;61;20357;-64
2021/11/26 04:29:22;0.00;0.00;0.62;0.00;0.00;0.62;6.67;4.87;;;20.90;26.70;;;;;;2245933;61;20706;-64
2021/11/26 04:32:08;0.00;0.00;0.62;0.00;0.00;0.62;8.03;5.23;;;20.90;26.60;;;;;;2245513;61;20409;-63
2021/11/26 04:34:54;0.00;0.00;0.62;0.00;0.00;0.62;9.73;6.30;;;20.80;26.50;;;;;;2246176;61;20357;-64
2021/11/26 04:37:40;0.00;0.00;0.62;0.00;0.00;0.62;9.53;4.77;;;20.80;26.50;;;;;;2246013;61;20462;-64
2021/11/26 04:40:25;0.00;0.00;0.62;0.00;0.00;0.62;7.53;5.17;;;20.80;26.50;;;;;;2245248;61;20412;-63
2021/11/26 04:43:09;0.00;0.00;0.62;0.00;0.00;0.62;8.13;4.90;;;20.80;26.50;;;;;;2245968;61;20393;-64
2021/11/26 04:45:54;0.00;0.00;0.62;0.00;0.00;0.62;9.50;6.00;;;20.70;26.50;;;;;;2246059;61;20523;-64
2021/11/26 04:48:39;0.00;0.00;0.62;0.00;0.00;0.62;9.40;6.17;;;20.70;26.40;;;;;;2245248;61;20353;-64
2021/11/26 04:51:25;0.00;0.00;0.62;0.00;0.00;0.62;9.87;5.63;;;20.70;26.40;;;;;;2245838;61;20466;-64
2021/11/26 04:54:10;0.00;0.00;0.62;0.00;0.00;0.62;8.10;5.20;;;20.70;26.50;;;;;;2245850;61;20487;-64
2021/11/26 04:56:56;0.00;0.00;0.62;0.00;0.00;0.62;8.90;6.47;;;20.60;26.40;;;;;;2246068;61;20358;-64
2021/11/26 04:59:41;0.00;0.00;0.62;0.00;0.00;0.62;8.27;5.63;;;20.70;26.50;;;;;;2245968;61;20725;-64
2021/11/26 05:02:27;0.00;0.00;0.62;0.00;0.00;0.62;9.10;6.10;;;20.60;26.50;;;;;;2245182;61;20626;-63
2021/11/26 05:05:12;0.00;0.00;0.62;0.00;0.00;0.62;10.37;6.70;;;20.60;26.50;;;;;;2246225;61;20389;-64
2021/11/26 05:07:58;0.00;0.00;0.62;0.00;0.00;0.62;9.00;7.17;;;20.60;26.50;;;;;;2246025;61;20365;-63
2021/11/26 05:10:51;0.00;0.00;0.62;0.00;0.00;0.62;8.30;6.47;;;20.60;26.50;;;;;;2244699;61;20754;-64
2021/11/26 05:13:43;0.00;0.00;0.62;0.00;0.00;0.62;8.47;6.70;;;20.50;26.50;;;;;;2246204;61;20268;-64
2021/11/26 05:16:27;0.00;0.00;0.62;0.00;0.00;0.62;11.57;8.30;;;20.60;26.50;;;;;;2245503;61;20358;-64
2021/11/26 05:19:12;0.00;0.00;0.62;0.00;0.00;0.62;11.63;8.10;;;20.60;26.50;;;;;;2245980;61;20397;-62
2021/11/26 05:21:57;0.00;0.00;0.62;0.00;0.00;0.62;11.80;7.87;;;20.50;26.40;;;;;;2245884;61;20429;-64
2021/11/26 05:24:43;0.00;0.00;0.62;0.00;0.00;0.62;10.00;6.47;;;20.50;26.40;;;;;;2245074;61;20386;-64
2021/11/26 05:27:27;0.00;0.00;0.62;0.00;0.00;0.62;13.53;8.77;;;20.50;26.40;;;;;;2246117;61;20370;-64
2021/11/26 05:30:13;0.00;0.00;0.62;0.00;0.00;0.62;12.80;8.60;;;20.50;26.40;;;;;;2245726;61;20386;-64
2021/11/26 05:32:59;0.00;0.00;0.62;0.00;0.00;0.62;14.07;9.27;;;20.50;26.50;;;;;;2245289;61;20422;-64
2021/11/26 05:35:44;0.00;0.00;0.62;0.00;0.00;0.62;12.90;8.87;;;20.40;26.40;;;;;;2245687;61;20430;-64
2021/11/26 05:38:29;0.00;0.00;0.62;0.00;0.00;0.62;17.40;10.60;;;20.40;26.90;;;;;;2245449;61;20382;-64
2021/11/26 05:41:15;0.00;0.00;0.62;0.00;0.00;0.62;12.30;8.03;;;20.40;26.40;;;;;;2245942;61;20635;-64
2021/11/26 05:44:00;0.00;0.00;0.62;0.00;0.00;0.62;13.97;8.33;;;20.30;26.40;;;;;;2245633;61;20393;-64
2021/11/26 05:46:45;0.00;0.00;0.62;0.00;0.00;0.62;12.43;9.03;;;20.40;26.60;;;;;;2245176;61;20349;-63
2021/11/26 05:49:30;0.00;0.00;0.62;0.00;0.00;0.62;14.67;9.93;;;20.30;26.50;;;;;;2246037;61;20369;-64
2021/11/26 05:52:15;0.00;0.00;0.62;0.00;0.00;0.62;16.23;10.07;;;20.30;26.50;;;;;;2245724;61;20590;-64
2021/11/26 05:54:59;0.00;0.00;0.62;0.00;0.00;0.62;12.27;9.20;;;20.30;26.50;;;;;;2245178;61;20361;-61
2021/11/26 05:57:46;0.00;0.00;0.62;0.00;0.00;0.62;12.30;8.33;;;20.30;26.50;;;;;;2245964;61;20482;-63
2021/11/26 06:00:32;0.00;0.00;0.62;0.00;0.00;0.62;13.10;8.57;;;20.30;26.60;;;;;;2245511;61;20386;-64
2021/11/26 06:03:17;0.00;0.00;0.62;0.00;0.00;0.62;15.23;10.83;;;20.20;26.50;;;;;;2245129;61;20385;-64
2021/11/26 06:06:02;0.00;0.00;0.62;0.00;0.00;0.62;12.87;8.73;;;20.20;26.50;;;;;;2246031;61;20362;-64
2021/11/26 06:08:47;0.00;0.00;0.62;0.00;0.00;0.62;14.13;9.80;;;20.20;26.50;;;;;;2245018;61;20357;-64
2021/11/26 06:11:32;0.00;0.00;0.62;0.00;0.00;0.62;12.10;8.67;;;20.20;26.50;;;;;;2246009;61;20460;-64
2021/11/26 06:14:18;0.00;0.00;0.62;0.00;0.00;0.62;11.20;8.37;;;20.20;26.60;;;;;;2245651;61;20353;-64
2021/11/26 06:17:04;0.00;0.00;0.62;0.00;0.00;0.62;13.03;8.80;;;20.20;26.60;;;;;;2245076;61;20374;-64
2021/11/26 06:19:49;0.00;0.00;0.62;0.00;0.00;0.62;13.50;8.97;;;20.20;26.60;;;;;;2245722;61;20620;-64
2021/11/26 06:22:33;0.00;0.00;0.62;0.00;0.00;0.62;11.97;8.47;;;20.20;26.60;;;;;;2245662;61;20737;-64
2021/11/26 06:25:22;0.00;0.00;0.62;0.00;0.00;0.62;13.27;8.53;;;20.10;27.10;;;;;;2245418;61;20385;-65
2021/11/26 06:28:07;0.00;0.00;0.62;0.00;0.00;0.62;14.20;8.93;;;20.10;26.50;;;;;;2245868;61;20369;-64
2021/11/26 06:30:53;0.00;0.00;0.62;0.00;0.00;0.62;11.67;7.90;;;20.10;26.40;;;;;;2244857;61;20409;-64
2021/11/26 06:33:38;0.00;0.00;0.62;0.00;0.00;0.62;11.23;8.23;;;20.10;26.50;;;;;;2246016;61;20474;-65
2021/11/26 06:36:23;0.00;0.00;0.62;0.00;0.00;0.62;12.60;8.27;;;20.10;26.60;;;;;;2245579;61;20624;-62
2021/11/26 06:39:08;0.00;0.00;0.62;0.00;0.00;0.62;13.80;8.57;;;20.00;26.60;;;;;;2244988;61;20360;-65
2021/11/26 06:41:53;0.00;0.00;0.62;0.00;0.00;0.62;12.43;8.50;;;20.10;26.70;;;;;;2245812;61;20409;-65
2021/11/26 06:44:39;0.00;0.00;0.62;0.00;0.00;0.62;13.03;8.50;;;20.00;26.60;;;;;;2245661;61;20745;-63
2021/11/26 06:47:24;0.00;0.00;0.62;0.00;0.00;0.62;10.10;7.50;;;20.10;26.70;;;;;;2245205;61;20358;-64
2021/11/26 06:50:11;0.00;0.00;0.62;0.00;0.00;0.62;11.00;8.27;;;20.00;26.60;;;;;;2245660;61;20606;-64
2021/11/26 06:52:56;0.00;0.00;0.62;0.00;0.00;0.62;13.50;9.07;;;20.00;26.60;;;;;;2245122;61;20361;-64
2021/11/26 06:55:41;0.00;0.00;0.62;0.00;0.00;0.62;11.00;8.57;;;20.00;26.60;;;;;;2246626;61;20518;-64
2021/11/26 06:58:26;0.00;0.00;0.62;0.00;0.00;0.62;12.67;7.80;;;20.00;26.60;;;;;;2246179;61;20356;-64
2021/11/26 07:01:12;0.00;0.00;0.62;0.00;0.00;0.62;11.70;7.30;;;20.00;26.60;;;;;;2245661;61;20384;-64
2021/11/26 07:03:59;0.00;0.00;0.62;0.00;0.00;0.62;11.40;7.80;;;20.00;26.60;;;;;;2246360;61;20677;-65
2021/11/26 07:06:44;0.00;0.00;0.62;0.00;0.00;0.62;11.23;7.10;;;20.00;26.60;;;;;;2246392;61;20413;-65
2021/11/26 07:09:28;0.00;0.00;0.62;0.00;0.00;0.62;9.73;7.83;;;20.00;26.60;;;;;;2245656;61;20727;-65
2021/11/26 07:12:13;0.00;0.00;0.62;0.00;0.00;0.62;10.53;7.13;;;19.90;26.50;;;;;;2246452;61;20373;-65
2021/11/26 07:14:58;0.00;0.00;0.62;0.00;0.00;0.62;9.07;5.87;;;19.90;26.50;;;;;;2245644;61;20725;-63
2021/11/26 07:17:44;0.00;0.00;0.62;0.00;0.00;0.62;8.90;7.60;;;19.90;26.50;;;;;;2246398;61;20469;-64
2021/11/26 07:20:30;0.00;0.00;0.62;0.00;0.00;0.62;8.50;6.60;;;20.00;26.60;;;;;;2246167;61;20418;-64
2021/11/26 07:23:15;0.00;0.00;0.62;0.00;0.00;0.62;12.30;6.63;;;19.90;26.50;;;;;;2245667;61;20365;-64
2021/11/26 07:26:00;0.00;0.00;0.62;0.00;0.00;0.62;10.37;6.67;;;19.90;26.50;;;;;;2246409;61;20604;-64
2021/11/26 07:28:45;0.00;0.00;0.62;0.00;0.00;0.62;8.67;6.90;;;19.90;26.50;;;;;;2246215;61;20366;-64
2021/11/26 07:31:30;0.00;0.00;0.62;0.00;0.00;0.62;11.33;7.60;;;19.90;26.50;;;;;;2245610;61;20377;-64
2021/11/26 07:34:14;0.00;0.00;0.62;0.00;0.00;0.62;10.30;6.10;;;19.90;26.60;;;;;;2246726;61;20731;-64
2021/11/26 07:37:01;0.00;0.00;0.62;0.00;0.00;0.62;8.23;6.37;;;19.90;26.50;;;;;;2246101;61;20717;-64
2021/11/26 07:39:46;0.00;0.00;0.62;0.00;0.00;0.62;9.30;7.00;;;19.90;26.60;;;;;;2246226;61;20366;-64
2021/11/26 07:42:30;0.00;0.00;0.62;0.00;0.00;0.62;13.23;7.40;;;19.90;26.50;;;;;;2246163;61;20397;-64
2021/11/26 07:45:15;0.00;0.00;0.62;0.00;0.00;0.62;9.20;6.40;;;19.90;26.50;;;;;;2245525;61;20417;-64
2021/11/26 07:48:00;0.00;0.00;0.62;0.00;0.00;0.62;11.33;5.60;;;19.90;26.50;;;;;;2245970;61;20377;-64
2021/11/26 07:50:46;0.00;0.00;0.62;0.00;0.00;0.62;10.77;6.10;;;19.90;26.50;;;;;;2246108;61;20773;-64
2021/11/26 07:53:32;0.00;0.00;0.62;0.00;0.00;0.62;7.73;5.33;;;19.90;26.50;;;;;;2245444;61;20357;-64
2021/11/26 07:56:17;0.00;0.00;0.62;0.00;0.00;0.62;7.10;5.60;;;19.80;26.50;;;;;;2246433;61;20385;-64
2021/11/26 07:59:01;0.00;0.00;0.62;0.00;0.00;0.62;6.57;5.30;;;19.80;26.50;;;;;;2245898;61;20361;-64
2021/11/26 08:01:47;0.00;0.00;0.62;0.00;0.00;0.62;7.83;5.53;;;19.80;26.50;;;;;;2246062;61;20815;-64
2021/11/26 08:04:32;0.00;0.00;0.62;0.00;0.00;0.62;8.00;4.77;;;19.80;26.50;;;;;;2246490;61;20648;-64
2021/11/26 08:07:18;0.00;0.00;0.62;0.00;0.00;0.62;7.37;5.00;;;19.80;26.50;;;;;;2247784;61;20373;-65
2021/11/26 08:10:09;0.00;0.00;0.62;0.00;0.00;0.62;7.10;5.53;;;19.80;26.50;;;;;;2245879;61;20357;-66
2021/11/26 08:12:54;0.00;0.00;0.62;0.00;0.00;0.62;8.63;6.00;;;19.80;26.50;;;;;;2246171;61;20409;-67
2021/11/26 08:15:39;0.00;0.00;0.62;0.00;0.00;0.62;7.80;5.67;;;19.80;26.50;;;;;;2245623;61;20369;-67
2021/11/26 08:18:24;0.00;0.00;0.62;0.00;0.00;0.62;7.13;5.30;;;19.80;26.50;;;;;;2246228;61;20741;-63
2021/11/26 08:21:09;0.00;0.00;0.62;0.00;0.00;0.62;7.80;4.37;;;19.80;26.50;;;;;;2245729;61;20381;-71
2021/11/26 08:23:54;0.00;0.00;0.62;0.00;0.00;0.62;9.10;5.30;;;19.80;26.50;;;;;;2246122;61;20385;-70
2021/11/26 08:26:41;0.00;0.00;0.62;0.00;0.00;0.62;6.97;5.10;;;19.80;26.50;;;;;;2246327;61;20382;-70
2021/11/26 08:29:26;0.00;0.00;0.62;0.00;0.00;0.62;6.03;5.10;;;19.80;26.60;;;;;;2245340;61;20737;-64
2021/11/26 08:32:10;0.00;0.00;0.62;0.00;0.00;0.62;8.03;5.97;;;19.80;26.60;;;;;;2246357;61;20394;-64
2021/11/26 08:34:55;0.00;0.00;0.62;0.00;0.00;0.62;9.10;4.87;;;19.80;26.60;;;;;;2245979;61;20362;-65
2021/11/26 08:37:40;0.00;0.00;0.62;0.00;0.00;0.62;6.73;4.70;;;19.80;26.60;;;;;;2245314;61;20406;-68
2021/11/26 08:40:25;0.00;0.00;0.62;0.00;0.00;0.62;7.63;5.07;;;19.80;26.50;;;;;;2246110;61;20397;-63
2021/11/26 08:43:11;0.00;0.00;0.62;0.00;0.00;0.62;9.07;5.17;;;19.80;26.60;;;;;;2245956;61;20369;-66
2021/11/26 08:45:56;0.00;0.00;0.62;0.00;0.00;0.62;7.00;5.07;;;19.80;26.60;;;;;;2245776;61;20378;-69
2021/11/26 08:48:41;0.00;0.00;0.62;0.00;0.00;0.62;8.23;4.60;;;19.80;26.70;;;;;;2245983;61;20357;-66
2021/11/26 08:51:30;0.00;0.00;0.62;0.00;0.00;0.62;11.67;6.03;;;19.80;26.70;;;;;;2245129;61;20608;-65
2021/11/26 08:54:15;0.00;0.00;0.62;0.00;0.00;0.62;8.03;5.10;;;19.80;26.60;;;;;;2245967;61;20349;-68
2021/11/26 08:57:00;0.00;0.00;0.62;0.00;0.00;0.62;8.37;4.30;;;19.80;26.70;;;;;;2245349;61;20417;-67
2021/11/26 08:59:46;0.00;0.00;0.62;0.00;0.00;0.62;6.70;5.57;;;19.80;26.70;;;;;;2244998;61;20373;-67
2021/11/26 09:02:31;0.00;0.00;0.62;0.00;0.00;0.62;7.13;4.70;;;19.80;26.70;;;;;;2245424;61;20374;-64
2021/11/26 09:05:16;0.00;0.00;0.62;0.00;0.00;0.62;7.67;4.87;;;19.70;26.50;;;;;;2245829;61;20385;-66
2021/11/26 09:08:03;0.00;0.00;0.62;0.00;0.00;0.62;8.50;5.07;;;19.70;26.60;;;;;;2245613;61;20427;-66
2021/11/26 09:10:48;0.00;0.00;0.62;0.00;0.00;0.62;7.60;4.80;;;19.70;26.60;;;;;;2245855;61;20785;-68
2021/11/26 09:13:34;0.00;0.00;0.62;0.00;0.00;0.62;9.17;4.60;;;19.70;26.70;;;;;;2245184;61;20414;-66
2021/11/26 09:16:20;0.00;0.00;0.62;0.00;0.00;0.62;7.27;4.10;;;19.70;26.70;;;;;;2245967;61;20732;-65
2021/11/26 09:19:05;0.00;0.00;0.62;0.00;0.00;0.62;7.93;4.67;;;19.70;26.70;;;;;;2245690;61;20454;-67
2021/11/26 09:21:50;0.00;0.00;0.62;0.00;0.00;0.62;6.20;4.40;;;19.70;26.70;;;;;;2244853;61;20381;-66
2021/11/26 09:24:35;0.00;0.00;0.62;0.00;0.00;0.62;4.80;3.30;;;19.70;26.70;;;;;;2246102;61;20432;-68
2021/11/26 09:27:19;0.00;0.00;0.62;0.00;0.00;0.62;4.60;3.30;;;19.70;26.80;;;;;;2245908;61;20532;-66
2021/11/26 09:30:07;0.00;0.00;0.62;0.00;0.00;0.62;5.93;3.20;;;19.70;27.40;;;;;;2245235;61;20378;-67
2021/11/26 09:32:55;0.00;0.00;0.62;0.00;0.00;0.62;4.70;3.23;;;19.70;26.90;;;;;;2246197;61;20381;-67
2021/11/26 09:35:40;0.00;0.00;0.62;0.00;0.00;0.62;4.10;3.13;;;19.70;26.90;;;;;;2245081;61;20402;-63
2021/11/26 09:38:25;0.00;0.00;0.62;0.00;0.00;0.62;7.00;3.53;;;19.80;26.90;;;;;;2246007;61;20623;-65
2021/11/26 09:41:13;0.00;0.00;0.62;0.00;0.00;0.62;3.87;3.10;;;19.80;27.00;;;;;;2245675;61;20389;-69
2021/11/26 09:44:01;0.00;0.00;0.62;0.00;0.00;0.62;4.03;3.47;;;19.80;27.00;;;;;;2245098;61;20414;-66
2021/11/26 09:46:47;0.00;0.00;0.62;0.00;0.00;0.62;3.53;2.63;;;19.80;27.00;;;;;;2246101;61;20585;-68
2021/11/26 09:49:34;0.00;0.00;0.62;0.00;0.00;0.62;4.20;2.87;;;19.90;27.10;;;;;;2245829;61;20361;-68
2021/11/26 09:52:19;0.00;0.00;0.62;0.00;0.00;0.62;3.83;2.50;;;19.90;27.10;;;;;;2245263;61;20362;-66
2021/11/26 09:55:11;0.00;0.00;0.62;0.00;0.00;0.62;3.90;2.60;;;19.90;27.10;;;;;;2245981;61;20475;-66
2021/11/26 09:57:55;0.00;0.00;0.62;0.00;0.00;0.62;3.77;2.33;;;19.90;27.10;;;;;;2244772;61;20389;-63
2021/11/26 10:00:40;0.00;0.00;0.62;0.00;0.00;0.62;4.17;2.60;;;20.00;27.20;;;;;;2245870;61;20417;-63
2021/11/26 10:03:41;0.00;0.00;0.62;0.00;0.00;0.62;3.67;2.90;;;20.00;27.20;;;;;;2245747;61;20369;-63
2021/11/26 10:06:37;0.00;0.00;0.62;0.00;0.00;0.62;5.03;2.87;;;20.00;27.20;;;;;;2245001;61;20365;-67
2021/11/26 10:09:22;0.00;0.00;0.62;0.00;0.00;0.62;3.93;2.57;;;20.00;27.10;;;;;;2245998;61;20417;-70
2021/11/26 10:12:12;0.00;0.00;0.62;0.00;0.00;0.62;3.70;2.37;;;20.10;27.20;;;;;;2248048;61;20382;-69
2021/11/26 10:14:57;0.00;0.00;0.62;0.00;0.00;0.62;6.20;2.93;;;20.10;27.20;;;;;;2245701;61;20390;-67
2021/11/26 10:17:42;0.00;0.00;0.62;0.00;0.00;0.62;3.30;2.70;;;20.10;27.20;;;;;;2245865;61;20733;-68
2021/11/26 10:20:27;0.00;0.00;0.62;0.00;0.00;0.62;6.47;4.10;;;20.10;27.10;;;;;;2244824;61;20436;-67
2021/11/26 10:23:20;0.00;0.00;0.62;0.00;0.00;0.62;4.20;2.90;;;20.20;27.20;;;;;;2245928;61;20354;-69
2021/11/26 10:26:15;0.00;0.00;0.62;0.00;0.00;0.62;4.27;3.03;;;20.20;27.20;;;;;;2245632;61;20442;-71
2021/11/26 10:29:04;0.00;0.00;0.62;0.00;0.00;0.62;2.60;2.00;;;20.20;27.20;;;;;;2244324;61;20357;-70
2021/11/26 10:31:49;0.00;0.00;0.62;0.00;0.00;0.62;2.60;2.20;;;20.20;27.20;;;;;;2245769;61;20413;-70
2021/11/26 10:34:34;0.00;0.00;0.62;0.00;0.00;0.62;3.60;2.57;;;20.20;27.20;;;;;;2245479;61;20353;-67
2021/11/26 10:37:22;0.00;0.00;0.62;0.00;0.00;0.62;3.00;2.60;;;20.20;27.20;;;;;;2245740;61;20627;-66
2021/11/26 10:40:20;0.00;0.00;0.62;0.00;0.00;0.62;2.87;2.30;;;20.30;27.30;;;;;;2245401;61;20397;-67
2021/11/26 10:43:10;0.00;0.00;0.62;0.00;0.00;0.62;3.30;2.17;;;20.30;27.30;;;;;;2244841;61;20397;-67
2021/11/26 11:00:22;0.00;0.00;0.62;0.00;0.00;0.62;4.03;2.20;;;20.40;27.30;;;;;;2245649;61;20389;-67
2021/11/26 11:03:07;0.00;0.00;0.62;0.00;0.00;0.62;2.80;1.90;;;20.40;27.30;;;;;;2245553;61;20346;-67
2021/11/26 11:05:52;0.00;0.00;0.62;0.00;0.00;0.62;3.53;2.67;;;20.40;27.30;;;;;;2244427;61;20362;-67
2021/11/26 11:08:37;0.00;0.00;0.62;0.00;0.00;0.62;2.73;2.23;;;20.40;27.30;;;;;;2245718;61;20361;-65